createdAt,value
2017-06-08T00:01:36.016Z,3.83
2017-06-08T00:04:03.542Z,3.08
2017-06-08T00:06:31.083Z,3.67
2017-06-08T00:08:58.587Z,3.37
2017-06-08T00:11:26.083Z,3.08
2017-06-08T00:13:53.584Z,3.47
2017-06-08T00:16:21.108Z,2.95
2017-06-08T00:18:48.644Z,3.45
2017-06-08T00:21:16.175Z,3.40
2017-06-08T00:23:43.715Z,4.25
2017-06-08T00:26:11.995Z,3.17
2017-06-08T00:28:40.307Z,3.30
2017-06-08T00:31:07.812Z,3.30
2017-06-08T00:33:35.321Z,3.85
2017-06-08T00:36:03.364Z,3.83
2017-06-08T00:38:30.886Z,3.40
2017-06-08T00:40:58.702Z,4.12
2017-06-08T00:43:26.187Z,3.47
2017-06-08T00:45:53.693Z,4.03
2017-06-08T00:48:21.208Z,4.25
2017-06-08T00:50:48.717Z,4.25
2017-06-08T00:53:16.240Z,4.30
2017-06-08T00:55:43.736Z,4.53
2017-06-08T00:58:12.012Z,4.18
2017-06-08T01:00:40.275Z,4.40
2017-06-08T01:03:07.794Z,4.15
2017-06-08T01:05:35.329Z,4.00
2017-06-08T01:08:02.839Z,3.55
2017-06-08T01:10:30.331Z,3.92
2017-06-08T01:12:58.603Z,4.90
2017-06-08T01:15:26.895Z,2.70
2017-06-08T01:17:54.414Z,3.58
2017-06-08T01:20:21.924Z,4.75
2017-06-08T01:22:49.433Z,3.50
2017-06-08T01:25:16.951Z,5.80
2017-06-08T01:27:44.470Z,3.40
2017-06-08T01:30:11.987Z,4.18
2017-06-08T01:32:39.514Z,3.75
2017-06-08T01:35:07.038Z,3.60
2017-06-08T01:37:34.535Z,3.47
2017-06-08T01:40:02.103Z,3.90
2017-06-08T01:42:29.619Z,3.50
2017-06-08T01:44:57.110Z,3.37
2017-06-08T01:47:24.617Z,3.35
2017-06-08T01:49:52.105Z,4.37
2017-06-08T01:52:20.488Z,4.57
2017-06-08T01:54:47.992Z,3.37
2017-06-08T01:57:15.495Z,3.60
2017-06-08T01:59:42.994Z,2.97
2017-06-08T02:02:10.492Z,3.03
2017-06-08T02:04:37.990Z,3.55
2017-06-08T02:07:05.569Z,3.15
2017-06-08T02:09:33.075Z,3.53
2017-06-08T02:12:00.575Z,3.28
2017-06-08T02:14:28.103Z,3.62
2017-06-08T02:16:55.592Z,3.03
2017-06-08T02:19:23.116Z,3.58
2017-06-08T02:21:50.645Z,3.15
2017-06-08T02:24:18.185Z,3.00
2017-06-08T02:26:45.673Z,3.15
2017-06-08T02:29:13.162Z,3.28
2017-06-08T02:31:40.792Z,3.22
2017-06-08T02:34:08.304Z,2.92
2017-06-08T02:36:35.867Z,3.20
2017-06-08T02:39:03.520Z,3.37
2017-06-08T02:41:31.795Z,2.97
2017-06-08T02:44:00.059Z,2.70
2017-06-08T02:46:27.573Z,3.58
2017-06-08T02:48:55.064Z,3.55
2017-06-08T02:51:22.558Z,2.50
2017-06-08T02:53:50.230Z,2.92
2017-06-08T02:56:17.723Z,3.20
2017-06-08T02:58:45.237Z,2.70
2017-06-08T03:01:12.752Z,2.95
2017-06-08T03:03:40.254Z,2.28
2017-06-08T03:06:07.776Z,2.75
2017-06-08T03:08:35.276Z,2.67
2017-06-08T03:11:02.775Z,2.90
2017-06-08T03:13:30.413Z,2.95
2017-06-08T03:15:57.918Z,3.28
2017-06-08T03:18:25.410Z,2.42
2017-06-08T03:20:52.916Z,3.03
2017-06-08T03:23:20.436Z,3.00
2017-06-08T03:25:47.941Z,2.67
2017-06-08T03:28:15.432Z,2.67
2017-06-08T03:30:42.940Z,3.17
2017-06-08T03:33:10.451Z,2.90
2017-06-08T03:35:38.717Z,2.90
2017-06-08T03:38:06.208Z,2.00
2017-06-08T03:40:33.723Z,2.45
2017-06-08T03:43:01.223Z,2.30
2017-06-08T03:45:28.732Z,2.80
2017-06-08T03:47:56.241Z,2.50
2017-06-08T03:50:23.741Z,2.97
2017-06-08T03:52:51.279Z,3.12
2017-06-08T03:55:18.819Z,2.90
2017-06-08T03:57:46.334Z,2.50
2017-06-08T04:00:13.842Z,2.60
2017-06-08T04:02:41.378Z,2.47
2017-06-08T04:05:09.646Z,2.78
2017-06-08T04:07:37.169Z,2.80
2017-06-08T04:10:04.666Z,2.62
2017-06-08T04:12:32.175Z,2.62
2017-06-08T04:14:59.670Z,2.42
2017-06-08T04:17:27.192Z,4.28
2017-06-08T04:19:54.702Z,2.05
2017-06-08T04:22:22.233Z,2.80
2017-06-08T04:24:49.795Z,2.75
2017-06-08T04:27:17.326Z,2.30
2017-06-08T04:29:44.869Z,1.95
2017-06-08T04:32:12.390Z,2.45
2017-06-08T04:34:39.904Z,3.22
2017-06-08T04:37:07.403Z,2.78
2017-06-08T04:39:34.917Z,2.45
2017-06-08T04:42:02.423Z,2.35
2017-06-08T04:44:29.924Z,2.10
2017-06-08T04:46:57.460Z,2.53
2017-06-08T04:49:25.839Z,2.20
2017-06-08T04:51:53.582Z,2.35
2017-06-08T04:54:21.097Z,2.17
2017-06-08T04:56:48.614Z,1.90
2017-06-08T04:59:16.148Z,2.00
2017-06-08T05:01:43.646Z,2.53
2017-06-08T05:04:11.925Z,2.47
2017-06-08T05:06:40.216Z,2.58
2017-06-08T05:09:07.723Z,2.30
2017-06-08T05:11:35.230Z,2.40
2017-06-08T05:14:02.758Z,2.00
2017-06-08T05:16:30.277Z,1.90
2017-06-08T05:18:57.903Z,2.58
2017-06-08T05:21:26.170Z,2.85
2017-06-08T05:23:54.469Z,1.95
2017-06-08T05:26:21.979Z,2.87
2017-06-08T05:28:49.472Z,2.20
2017-06-08T05:31:17.006Z,2.22
2017-06-08T05:33:44.518Z,2.35
2017-06-08T05:36:12.011Z,2.20
2017-06-08T05:38:39.541Z,2.97
2017-06-08T05:41:07.054Z,2.25
2017-06-08T05:43:34.552Z,2.12
2017-06-08T05:46:02.081Z,2.37
2017-06-08T05:48:29.603Z,2.08
2017-06-08T05:50:57.161Z,2.10
2017-06-08T05:53:24.655Z,2.92
2017-06-08T05:55:52.206Z,2.35
2017-06-08T05:58:19.720Z,1.85
2017-06-08T06:00:47.230Z,1.73
2017-06-08T06:03:14.731Z,2.20
2017-06-08T06:05:42.237Z,1.98
2017-06-08T06:08:09.752Z,1.92
2017-06-08T06:10:37.278Z,2.40
2017-06-08T06:13:04.808Z,3.30
2017-06-08T06:15:32.305Z,2.53
2017-06-08T06:17:59.835Z,1.52
2017-06-08T06:20:27.331Z,1.98
2017-06-08T06:22:54.831Z,3.15
2017-06-08T06:25:22.344Z,2.35
2017-06-08T06:27:49.864Z,1.98
2017-06-08T06:30:17.373Z,2.70
2017-06-08T06:32:44.887Z,1.67
2017-06-08T06:35:12.409Z,1.55
2017-06-08T06:37:39.915Z,2.25
2017-06-08T06:40:07.417Z,2.20
2017-06-08T06:42:34.930Z,1.55
2017-06-08T06:45:02.541Z,1.83
2017-06-08T06:47:30.035Z,2.40
2017-06-08T06:49:57.575Z,1.60
2017-06-08T06:52:25.092Z,1.60
2017-06-08T06:54:52.610Z,2.15
2017-06-08T06:57:20.150Z,1.50
2017-06-08T06:59:47.857Z,1.90
2017-06-08T07:02:15.433Z,1.80
2017-06-08T07:04:43.001Z,1.20
2017-06-08T07:07:10.816Z,1.80
2017-06-08T07:09:38.362Z,1.83
2017-06-08T07:12:05.886Z,2.12
2017-06-08T07:14:33.864Z,1.92
2017-06-08T07:17:01.409Z,1.92
2017-06-08T07:19:28.975Z,1.80
2017-06-08T07:21:56.514Z,2.45
2017-06-08T07:24:24.905Z,2.25
2017-06-08T07:26:52.421Z,1.15
2017-06-08T07:29:19.970Z,2.45
2017-06-08T07:31:47.484Z,2.42
2017-06-08T07:34:15.017Z,1.50
2017-06-08T07:36:42.519Z,1.12
2017-06-08T07:39:10.075Z,1.30
2017-06-08T07:41:37.579Z,1.77
2017-06-08T07:44:05.077Z,1.62
2017-06-08T07:46:33.361Z,1.60
2017-06-08T07:49:00.888Z,2.25
2017-06-08T07:51:28.408Z,1.27
2017-06-08T07:53:55.935Z,1.67
2017-06-08T07:56:24.244Z,2.00
2017-06-08T07:58:51.776Z,2.37
2017-06-08T08:01:31.128Z,1.75
2017-06-08T08:03:58.691Z,1.90
2017-06-08T08:06:26.189Z,1.80
2017-06-08T08:08:53.721Z,2.87
2017-06-08T08:11:21.246Z,1.40
2017-06-08T08:13:49.630Z,1.55
2017-06-08T08:16:17.141Z,1.70
2017-06-08T08:18:44.665Z,2.12
2017-06-08T08:21:12.159Z,1.77
2017-06-08T08:23:39.771Z,1.45
2017-06-08T08:26:07.303Z,1.80
2017-06-08T08:28:34.868Z,0.90
2017-06-08T08:31:02.365Z,1.65
2017-06-08T08:33:29.914Z,1.50
2017-06-08T08:35:57.477Z,1.75
2017-06-08T08:38:24.975Z,1.20
2017-06-08T08:40:52.518Z,1.60
2017-06-08T08:43:20.318Z,1.55
2017-06-08T08:45:47.933Z,1.50
2017-06-08T08:48:15.467Z,1.73
2017-06-08T08:50:43.034Z,1.25
2017-06-08T08:53:10.538Z,1.33
2017-06-08T08:55:38.070Z,1.55
2017-06-08T08:58:05.598Z,2.15
2017-06-08T09:00:33.881Z,1.30
2017-06-08T09:03:02.164Z,2.47
2017-06-08T09:05:29.695Z,1.75
2017-06-08T09:07:57.206Z,2.12
2017-06-08T09:10:24.708Z,2.33
2017-06-08T09:12:52.220Z,2.15
2017-06-08T09:15:19.756Z,1.83
2017-06-08T09:17:47.297Z,3.28
2017-06-08T09:20:14.797Z,2.08
2017-06-08T09:22:42.300Z,2.12
2017-06-08T09:25:09.816Z,2.28
2017-06-08T09:27:37.330Z,2.17
2017-06-08T09:30:04.836Z,1.92
2017-06-08T09:32:32.445Z,2.50
2017-06-08T09:34:59.984Z,3.40
2017-06-08T09:37:27.588Z,2.10
2017-06-08T09:39:55.890Z,1.80
2017-06-08T09:42:23.382Z,1.40
2017-06-08T09:44:50.938Z,1.55
2017-06-08T09:47:18.486Z,0.88
2017-06-08T09:49:45.987Z,2.33
2017-06-08T09:52:13.515Z,2.12
2017-06-08T09:54:41.029Z,1.45
2017-06-08T09:57:08.544Z,2.28
2017-06-08T09:59:36.061Z,1.30
2017-06-08T10:02:03.572Z,1.90
2017-06-08T10:04:31.121Z,1.50
2017-06-08T10:06:58.622Z,2.10
2017-06-08T10:09:26.144Z,1.98
2017-06-08T10:11:53.636Z,2.05
2017-06-08T10:14:21.182Z,1.95
2017-06-08T10:16:48.728Z,1.80
2017-06-08T10:19:16.250Z,2.45
2017-06-08T10:21:43.787Z,3.25
2017-06-08T10:24:11.332Z,1.90
2017-06-08T10:26:39.610Z,2.20
2017-06-08T10:29:07.880Z,1.67
2017-06-08T10:31:36.152Z,1.85
2017-06-08T10:34:04.471Z,1.45
2017-06-08T10:36:31.983Z,0.85
2017-06-08T10:38:59.495Z,1.25
2017-06-08T10:41:27.007Z,0.93
2017-06-08T10:43:55.289Z,0.70
2017-06-08T10:46:23.576Z,1.00
2017-06-08T10:48:52.650Z,0.80
2017-06-08T10:51:20.175Z,1.70
2017-06-08T10:53:47.687Z,0.90
2017-06-08T10:56:15.200Z,0.90
2017-06-08T10:58:42.710Z,0.65
2017-06-08T11:01:10.269Z,0.70
2017-06-08T11:03:37.775Z,0.82
2017-06-08T11:06:05.332Z,1.20
2017-06-08T11:08:32.863Z,0.70
2017-06-08T11:11:00.420Z,0.80
2017-06-08T11:13:27.957Z,0.55
2017-06-08T11:15:55.478Z,1.05
2017-06-08T11:18:22.998Z,1.02
2017-06-08T11:20:50.527Z,1.10
2017-06-08T11:23:18.049Z,1.58
2017-06-08T11:25:45.546Z,1.30
2017-06-08T11:28:13.808Z,1.23
2017-06-08T11:30:41.430Z,0.95
2017-06-08T11:33:09.075Z,1.00
2017-06-08T11:35:36.584Z,1.05
2017-06-08T11:38:04.096Z,1.33
2017-06-08T11:40:31.602Z,1.50
2017-06-08T11:42:59.144Z,1.50
2017-06-08T11:45:26.661Z,1.33
2017-06-08T11:47:54.187Z,1.37
2017-06-08T11:50:21.711Z,0.90
2017-06-08T11:52:49.241Z,1.40
2017-06-08T11:55:17.100Z,1.48
2017-06-08T11:57:46.422Z,1.35
2017-06-08T12:00:14.001Z,2.40
2017-06-08T12:02:41.540Z,1.40
2017-06-08T12:05:09.039Z,1.45
2017-06-08T12:07:36.543Z,1.85
2017-06-08T12:10:04.074Z,1.05
2017-06-08T12:12:31.575Z,1.25
2017-06-08T12:14:59.128Z,1.70
2017-06-08T12:17:26.692Z,1.37
2017-06-08T12:19:54.252Z,2.80
2017-06-08T12:22:21.759Z,2.05
2017-06-08T12:24:49.285Z,1.50
2017-06-08T12:27:16.786Z,1.48
2017-06-08T12:29:45.302Z,1.48
2017-06-08T12:32:12.994Z,1.87
2017-06-08T12:34:40.487Z,1.85
2017-06-08T12:37:07.996Z,1.70
2017-06-08T12:39:35.525Z,1.95
2017-06-08T12:42:03.047Z,1.95
2017-06-08T12:44:30.562Z,1.70
2017-06-08T12:46:58.846Z,2.72
2017-06-08T12:49:26.371Z,3.67
2017-06-08T12:51:53.871Z,1.95
2017-06-08T12:54:21.399Z,1.85
2017-06-08T12:56:48.912Z,1.00
2017-06-08T12:59:16.415Z,1.58
2017-06-08T13:01:43.913Z,1.65
2017-06-08T13:04:11.459Z,2.00
2017-06-08T13:06:38.950Z,1.40
2017-06-08T13:09:06.455Z,1.67
2017-06-08T13:11:33.957Z,2.10
2017-06-08T13:14:01.481Z,1.65
2017-06-08T13:16:29.762Z,1.80
2017-06-08T13:18:57.298Z,2.08
2017-06-08T13:21:24.779Z,2.45
2017-06-08T13:23:52.419Z,2.10
2017-06-08T13:26:19.944Z,1.83
2017-06-08T13:28:47.477Z,1.92
2017-06-08T13:31:14.967Z,2.50
2017-06-08T13:33:42.470Z,3.00
2017-06-08T13:36:10.028Z,2.10
2017-06-08T13:38:38.312Z,1.75
2017-06-08T13:41:05.818Z,2.22
2017-06-08T13:43:33.316Z,1.90
2017-06-08T13:46:00.998Z,2.00
2017-06-08T13:48:28.501Z,2.00
2017-06-08T13:50:56.027Z,2.03
2017-06-08T13:53:23.538Z,2.00
2017-06-08T13:55:51.023Z,2.00
2017-06-08T13:58:18.530Z,1.92
2017-06-08T14:00:46.072Z,2.65
2017-06-08T14:03:13.567Z,1.87
2017-06-08T14:05:41.077Z,1.70
2017-06-08T14:08:08.625Z,2.10
2017-06-08T14:10:36.899Z,2.30
2017-06-08T14:13:05.177Z,3.58
2017-06-08T14:15:33.438Z,1.62
2017-06-08T14:18:01.020Z,2.17
2017-06-08T14:20:28.549Z,1.75
2017-06-08T14:22:56.061Z,1.60
2017-06-08T14:25:23.567Z,2.55
2017-06-08T14:27:51.079Z,1.55
2017-06-08T14:30:18.605Z,2.10
2017-06-08T14:32:47.844Z,2.08
2017-06-08T14:35:15.430Z,1.98
2017-06-08T14:37:42.964Z,1.80
2017-06-08T14:40:10.585Z,3.10
2017-06-08T14:42:38.141Z,2.03
2017-06-08T14:45:06.425Z,1.50
2017-06-08T14:47:34.810Z,2.75
2017-06-08T14:50:02.721Z,2.85
2017-06-08T14:52:30.277Z,1.92
2017-06-08T14:54:57.895Z,2.53
2017-06-08T14:57:26.197Z,2.35
2017-06-08T14:59:53.744Z,1.98
2017-06-08T15:02:21.313Z,1.80
2017-06-08T15:04:48.839Z,2.30
2017-06-08T15:07:16.360Z,2.15
2017-06-08T15:09:43.861Z,1.50
2017-06-08T15:12:11.371Z,3.40
2017-06-08T15:14:38.953Z,1.70
2017-06-08T15:17:06.476Z,1.90
2017-06-08T15:19:34.026Z,2.10
2017-06-08T15:22:01.696Z,1.90
2017-06-08T15:24:29.257Z,2.10
2017-06-08T15:26:56.925Z,1.90
2017-06-08T15:29:24.456Z,2.42
2017-06-08T15:31:51.982Z,2.47
2017-06-08T15:34:19.597Z,2.22
2017-06-08T15:36:47.175Z,1.77
2017-06-08T15:39:14.717Z,2.45
2017-06-08T15:41:42.238Z,2.40
2017-06-08T15:44:09.774Z,2.50
2017-06-08T15:46:37.330Z,2.40
2017-06-08T15:49:04.898Z,1.77
2017-06-08T15:51:32.440Z,3.15
2017-06-08T15:53:59.956Z,2.10
2017-06-08T15:56:28.243Z,2.10
2017-06-08T15:58:56.520Z,1.70
2017-06-08T16:01:24.811Z,1.98
2017-06-08T16:03:52.328Z,1.85
2017-06-08T16:06:19.840Z,2.35
2017-06-08T16:08:47.355Z,1.90
2017-06-08T16:11:15.749Z,1.45
2017-06-08T16:13:43.255Z,2.20
2017-06-08T16:16:10.799Z,1.62
2017-06-08T16:18:38.308Z,1.95
2017-06-08T16:21:05.868Z,1.95
2017-06-08T16:23:33.419Z,2.05
2017-06-08T16:26:00.945Z,1.90
2017-06-08T16:28:28.454Z,1.90
2017-06-08T16:30:56.735Z,1.77
2017-06-08T16:33:25.034Z,1.67
2017-06-08T16:35:52.592Z,2.22
2017-06-08T16:38:20.306Z,1.67
2017-06-08T16:40:47.817Z,1.67
2017-06-08T16:43:15.311Z,1.90
2017-06-08T16:45:42.842Z,1.70
2017-06-08T16:48:10.390Z,1.60
2017-06-08T16:50:37.912Z,1.90
2017-06-08T16:53:05.428Z,2.50
2017-06-08T16:55:32.920Z,2.08
2017-06-08T16:58:00.427Z,2.50
2017-06-08T17:00:27.967Z,1.95
2017-06-08T17:02:55.491Z,1.75
2017-06-08T17:05:23.032Z,2.03
2017-06-08T17:07:50.638Z,1.65
2017-06-08T17:10:18.153Z,1.58
2017-06-08T17:12:45.661Z,1.67
2017-06-08T17:15:13.325Z,2.08
2017-06-08T17:17:40.840Z,2.28
2017-06-08T17:20:08.354Z,2.05
2017-06-08T17:22:36.630Z,2.40
2017-06-08T17:25:05.043Z,1.52
2017-06-08T17:27:32.580Z,1.80
2017-06-08T17:30:00.090Z,2.05
2017-06-08T17:32:27.807Z,1.87
2017-06-08T17:34:55.328Z,1.70
2017-06-08T17:37:22.850Z,1.50
2017-06-08T17:39:50.474Z,2.55
2017-06-08T17:42:18.808Z,1.92
2017-06-08T17:44:46.325Z,2.60
2017-06-08T17:47:13.878Z,1.75
2017-06-08T17:49:41.400Z,2.12
2017-06-08T17:52:08.943Z,3.00
2017-06-08T17:54:36.446Z,1.95
2017-06-08T17:57:04.068Z,2.35
2017-06-08T17:59:31.626Z,2.47
2017-06-08T18:01:59.131Z,3.00
2017-06-08T18:04:26.660Z,2.30
2017-06-08T18:06:54.159Z,2.33
2017-06-08T18:09:21.685Z,2.35
2017-06-08T18:11:49.248Z,2.83
2017-06-08T18:14:17.534Z,3.20
2017-06-08T18:16:45.819Z,2.47
2017-06-08T18:19:14.226Z,2.78
2017-06-08T18:21:41.719Z,2.00
2017-06-08T18:24:09.219Z,2.05
2017-06-08T18:26:37.540Z,2.60
2017-06-08T18:29:05.120Z,2.78
2017-06-08T18:31:32.669Z,2.60
2017-06-08T18:34:00.277Z,2.70
2017-06-08T18:36:28.697Z,2.67
2017-06-08T18:38:56.272Z,3.20
2017-06-08T18:41:23.875Z,3.70
2017-06-08T18:43:52.188Z,3.60
2017-06-08T18:46:19.749Z,3.28
2017-06-08T18:48:47.259Z,3.10
2017-06-08T18:51:14.804Z,3.05
2017-06-08T18:53:42.312Z,6.82
2017-06-08T18:56:09.836Z,6.22
2017-06-08T18:58:37.367Z,4.78
2017-06-08T19:01:04.939Z,4.40
2017-06-08T19:03:32.476Z,4.07
2017-06-08T19:05:59.997Z,5.12
2017-06-08T19:08:27.502Z,4.85
2017-06-08T19:10:55.002Z,4.15
2017-06-08T19:13:23.308Z,4.40
2017-06-08T19:15:50.856Z,3.60
2017-06-08T19:18:18.388Z,4.47
2017-06-08T19:20:45.911Z,4.87
2017-06-08T19:23:13.438Z,4.15
2017-06-08T19:25:41.128Z,5.00
2017-06-08T19:28:08.694Z,7.25
2017-06-08T19:30:36.256Z,6.25
2017-06-08T19:33:03.880Z,5.93
2017-06-08T19:35:31.399Z,5.90
2017-06-08T19:37:58.978Z,6.15
2017-06-08T19:40:26.532Z,7.32
2017-06-08T19:42:54.130Z,5.75
2017-06-08T19:45:21.668Z,6.43
2017-06-08T19:47:49.955Z,4.37
2017-06-08T19:50:18.275Z,5.57
2017-06-08T19:52:45.809Z,5.32
2017-06-08T19:55:13.394Z,6.10
2017-06-08T19:57:40.928Z,6.35
2017-06-08T20:00:08.471Z,4.32
2017-06-08T20:02:36.743Z,5.07
2017-06-08T20:05:05.023Z,7.45
2017-06-08T20:07:33.333Z,9.60
2017-06-08T20:10:00.863Z,5.50
2017-06-08T20:12:28.444Z,6.70
2017-06-08T20:14:55.978Z,5.72
2017-06-08T20:17:23.472Z,6.90
2017-06-08T20:19:50.990Z,6.05
2017-06-08T20:22:19.278Z,5.43
2017-06-08T20:24:47.547Z,5.25
2017-06-08T20:27:15.872Z,5.10
2017-06-08T20:29:43.397Z,5.15
2017-06-08T20:32:10.927Z,4.97
2017-06-08T20:34:38.451Z,4.72
2017-06-08T20:37:06.239Z,6.07
2017-06-08T20:39:33.783Z,5.75
2017-06-08T20:42:01.280Z,6.20
2017-06-08T20:44:28.856Z,6.32
2017-06-08T20:46:57.144Z,5.28
2017-06-08T20:49:24.664Z,4.72
2017-06-08T20:51:52.164Z,5.40
2017-06-08T20:54:19.680Z,5.62
2017-06-08T20:56:47.207Z,5.90
2017-06-08T20:59:14.728Z,5.32
2017-06-08T21:01:42.280Z,5.40
2017-06-08T21:04:10.555Z,5.80
2017-06-08T21:06:38.855Z,5.62
2017-06-08T21:09:06.351Z,5.32
2017-06-08T21:11:33.859Z,5.05
2017-06-08T21:14:01.399Z,6.75
2017-06-08T21:16:28.904Z,6.65
2017-06-08T21:18:56.412Z,7.72
2017-06-08T21:21:23.940Z,8.52
2017-06-08T21:23:51.469Z,11.80
2017-06-08T21:26:18.987Z,7.10
2017-06-08T21:28:46.501Z,6.10
2017-06-08T21:31:14.114Z,5.40
2017-06-08T21:33:41.623Z,6.62
2017-06-08T21:36:09.128Z,5.85
2017-06-08T21:38:36.655Z,6.57
2017-06-08T21:41:04.175Z,5.53
2017-06-08T21:43:31.718Z,5.68
2017-06-08T21:45:59.292Z,5.12
2017-06-08T21:48:26.811Z,5.50
2017-06-08T21:50:55.316Z,5.20
2017-06-08T21:53:23.607Z,6.30
2017-06-08T21:55:51.891Z,5.50
2017-06-08T21:58:20.151Z,7.40
2017-06-08T22:00:48.434Z,5.90
2017-06-08T22:03:16.720Z,6.20
2017-06-08T22:05:45.000Z,6.00
2017-06-08T22:08:13.290Z,5.53
2017-06-08T22:10:40.827Z,6.78
2017-06-08T22:13:08.332Z,7.07
2017-06-08T22:15:35.855Z,6.93
2017-06-08T22:18:04.178Z,6.05
2017-06-08T22:20:31.778Z,6.62
2017-06-08T22:23:00.104Z,7.85
2017-06-08T22:25:27.630Z,6.93
2017-06-08T22:27:55.177Z,7.25
2017-06-08T22:30:23.460Z,6.78
2017-06-08T22:32:51.802Z,6.85
2017-06-08T22:35:19.307Z,7.87
2017-06-08T22:37:46.804Z,5.60
2017-06-08T22:40:14.392Z,7.10
2017-06-08T22:42:41.918Z,7.35
2017-06-08T22:45:09.415Z,6.15
2017-06-08T22:47:36.983Z,6.37
2017-06-08T22:50:04.479Z,7.28
2017-06-08T22:52:32.031Z,6.80
2017-06-08T22:54:59.543Z,6.90
2017-06-08T22:57:27.080Z,7.03
2017-06-08T22:59:54.571Z,7.00
2017-06-08T23:02:22.577Z,6.20
2017-06-08T23:04:50.080Z,6.95
2017-06-08T23:07:17.646Z,6.18
2017-06-08T23:09:45.176Z,6.30
2017-06-08T23:12:12.679Z,6.78
2017-06-08T23:14:40.179Z,6.15
2017-06-08T23:17:07.711Z,6.47
2017-06-08T23:19:35.262Z,7.03
2017-06-08T23:22:02.794Z,6.07
2017-06-08T23:24:30.288Z,6.47
2017-06-08T23:26:57.797Z,5.65
2017-06-08T23:29:25.274Z,5.85
2017-06-08T23:31:52.792Z,6.35
2017-06-08T23:34:20.314Z,6.03
2017-06-08T23:36:47.811Z,6.10
2017-06-08T23:39:15.321Z,6.45
2017-06-08T23:41:42.820Z,6.90
2017-06-08T23:44:11.082Z,5.87
2017-06-08T23:46:39.358Z,5.12
2017-06-08T23:49:06.910Z,5.35
2017-06-08T23:51:34.406Z,5.20
2017-06-08T23:54:01.920Z,5.30
2017-06-08T23:56:29.609Z,5.28
2017-06-08T23:58:58.063Z,5.22
